createdAt,value
2022-11-14T00:00:55.132Z,6.57
2022-11-14T00:03:43.658Z,6.48
2022-11-14T00:06:31.067Z,6.43
2022-11-14T00:09:18.111Z,6.42
2022-11-14T00:12:05.594Z,6.41
2022-11-14T00:14:53.251Z,6.35
2022-11-14T00:17:41.084Z,6.21
2022-11-14T00:20:29.500Z,6.14
2022-11-14T00:23:17.080Z,6.04
2022-11-14T00:26:04.405Z,5.94
2022-11-14T00:28:51.491Z,5.87
2022-11-14T00:31:38.595Z,5.82
2022-11-14T00:34:25.816Z,5.75
2022-11-14T00:37:14.443Z,5.75
2022-11-14T00:40:01.377Z,5.74
2022-11-14T00:42:48.324Z,5.82
2022-11-14T00:45:35.594Z,5.90
2022-11-14T00:48:22.652Z,5.94
2022-11-14T00:51:09.874Z,5.93
2022-11-14T00:53:58.558Z,5.92
2022-11-14T00:56:45.939Z,5.96
2022-11-14T00:59:33.038Z,5.99
2022-11-14T01:02:20.076Z,6.00
2022-11-14T01:05:08.165Z,5.93
2022-11-14T01:07:55.547Z,5.97
2022-11-14T01:10:46.991Z,5.97
2022-11-14T01:13:34.373Z,5.91
2022-11-14T01:16:21.418Z,5.83
2022-11-14T01:19:08.472Z,5.86
2022-11-14T01:21:55.630Z,5.88
2022-11-14T01:24:42.784Z,5.88
2022-11-14T01:27:33.570Z,5.91
2022-11-14T01:30:20.794Z,5.90
2022-11-14T01:33:08.789Z,5.91
2022-11-14T01:36:00.274Z,5.96
2022-11-14T01:38:47.786Z,5.89
2022-11-14T01:41:35.102Z,5.90
2022-11-14T01:44:46.442Z,5.85
2022-11-14T01:47:35.243Z,5.84
2022-11-14T01:50:22.499Z,5.88
2022-11-14T01:53:09.772Z,5.77
2022-11-14T01:56:01.656Z,5.68
2022-11-14T01:58:55.446Z,5.45
2022-11-14T02:01:48.032Z,5.77
2022-11-14T02:04:40.055Z,5.78
2022-11-14T02:07:31.042Z,5.80
2022-11-14T02:10:21.476Z,5.80
2022-11-14T02:13:09.283Z,5.84
2022-11-14T02:15:56.445Z,5.85
2022-11-14T02:18:45.180Z,5.91
2022-11-14T02:21:33.850Z,5.89
2022-11-14T02:24:20.752Z,5.89
2022-11-14T02:27:09.701Z,5.92
2022-11-14T02:30:03.635Z,5.82
2022-11-14T02:33:10.428Z,5.87
2022-11-14T02:35:57.941Z,5.85
2022-11-14T02:38:46.388Z,5.88
2022-11-14T02:41:33.274Z,5.92
2022-11-14T02:44:21.196Z,5.97
2022-11-14T02:47:08.454Z,5.91
2022-11-14T02:49:55.747Z,5.88
2022-11-14T02:52:45.494Z,5.95
2022-11-14T02:55:34.084Z,5.99
2022-11-14T02:58:21.303Z,5.94
2022-11-14T03:01:20.188Z,5.98
2022-11-14T03:04:08.807Z,5.94
2022-11-14T03:06:56.249Z,5.91
2022-11-14T03:09:43.339Z,5.92
2022-11-14T03:12:32.052Z,5.92
2022-11-14T03:15:19.429Z,6.04
2022-11-14T03:18:06.423Z,6.06
2022-11-14T03:20:53.408Z,5.97
2022-11-14T03:23:40.599Z,5.94
2022-11-14T03:26:28.128Z,5.98
2022-11-14T03:29:16.562Z,6.03
2022-11-14T03:32:03.494Z,6.06
2022-11-14T03:34:50.575Z,6.03
2022-11-14T03:37:37.976Z,5.95
2022-11-14T03:40:25.400Z,6.00
2022-11-14T03:43:12.768Z,5.93
2022-11-14T03:46:02.190Z,6.05
2022-11-14T03:48:49.581Z,6.06
2022-11-14T03:51:36.932Z,6.03
2022-11-14T03:54:23.680Z,5.94
2022-11-14T03:57:11.059Z,5.94
2022-11-14T03:59:58.192Z,5.97
2022-11-14T04:02:47.891Z,6.03
2022-11-14T04:05:36.064Z,6.06
2022-11-14T04:08:24.323Z,6.01
2022-11-14T04:11:11.645Z,5.92
2022-11-14T04:13:59.476Z,5.89
2022-11-14T04:16:47.185Z,5.96
2022-11-14T04:19:36.057Z,5.97
2022-11-14T04:22:22.987Z,5.96
2022-11-14T04:25:11.061Z,5.91
2022-11-14T04:27:58.405Z,5.86
2022-11-14T04:30:46.272Z,5.87
2022-11-14T04:33:33.288Z,5.90
2022-11-14T04:36:22.015Z,5.96
2022-11-14T04:39:09.547Z,5.92
2022-11-14T04:41:56.611Z,5.96
2022-11-14T04:44:44.351Z,5.95
2022-11-14T04:47:31.932Z,6.00
2022-11-14T04:50:19.213Z,5.95
2022-11-14T04:53:08.132Z,5.95
2022-11-14T04:55:55.575Z,5.99
2022-11-14T04:58:42.426Z,6.05
2022-11-14T05:01:29.796Z,6.06
2022-11-14T05:04:17.341Z,6.04
2022-11-14T05:07:04.943Z,5.98
2022-11-14T05:09:53.881Z,5.96
2022-11-14T05:12:40.955Z,5.97
2022-11-14T05:15:27.986Z,5.93
2022-11-14T05:18:15.493Z,5.93
2022-11-14T05:21:03.231Z,5.95
2022-11-14T05:23:50.713Z,5.79
2022-11-14T05:26:39.705Z,5.85
2022-11-14T05:29:27.177Z,5.86
2022-11-14T05:32:16.464Z,5.96
2022-11-14T05:35:04.417Z,5.94
2022-11-14T05:37:54.909Z,5.86
2022-11-14T05:40:45.852Z,5.93
2022-11-14T05:43:34.591Z,5.93
2022-11-14T05:46:22.054Z,5.91
2022-11-14T05:49:08.960Z,5.99
2022-11-14T05:51:55.905Z,5.99
2022-11-14T05:54:43.094Z,5.93
2022-11-14T05:57:30.148Z,5.85
2022-11-14T06:00:19.214Z,5.91
2022-11-14T06:03:06.337Z,5.88
2022-11-14T06:05:53.685Z,5.83
2022-11-14T06:08:41.317Z,5.86
2022-11-14T06:11:28.521Z,5.86
2022-11-14T06:14:15.590Z,5.74
2022-11-14T06:17:04.094Z,5.70
2022-11-14T06:19:51.274Z,5.62
2022-11-14T06:22:38.520Z,5.62
2022-11-14T06:25:25.636Z,5.62
2022-11-14T06:28:12.716Z,5.69
2022-11-14T06:31:00.496Z,5.73
2022-11-14T06:33:49.667Z,5.75
2022-11-14T06:36:37.021Z,5.75
2022-11-14T06:39:23.945Z,5.76
2022-11-14T06:42:11.030Z,5.83
2022-11-14T06:44:58.124Z,5.91
2022-11-14T06:47:45.291Z,6.06
2022-11-14T06:50:33.712Z,6.21
2022-11-14T06:53:21.397Z,6.12
2022-11-14T06:56:10.265Z,6.20
2022-11-14T06:58:57.669Z,6.29
2022-11-14T07:01:44.777Z,6.37
2022-11-14T07:04:31.894Z,6.35
2022-11-14T07:07:20.373Z,6.34
2022-11-14T07:10:08.280Z,6.31
2022-11-14T07:12:55.147Z,6.25
2022-11-14T07:15:50.194Z,6.20
2022-11-14T07:18:37.737Z,6.35
2022-11-14T07:21:25.711Z,6.52
2022-11-14T07:24:14.195Z,6.59
2022-11-14T07:27:02.173Z,6.56
2022-11-14T07:29:49.044Z,6.62
2022-11-14T07:32:36.369Z,6.42
2022-11-14T07:35:24.232Z,6.44
2022-11-14T07:38:11.258Z,6.44
2022-11-14T07:41:01.704Z,6.12
2022-11-14T07:43:48.966Z,6.33
2022-11-14T07:46:36.150Z,6.59
2022-11-14T07:49:23.250Z,6.35
2022-11-14T07:52:10.198Z,6.46
2022-11-14T07:54:57.476Z,6.44
2022-11-14T07:57:49.218Z,6.33
2022-11-14T08:00:37.065Z,6.63
2022-11-14T08:03:24.564Z,6.96
2022-11-14T08:06:13.633Z,6.73
2022-11-14T08:09:00.842Z,6.58
2022-11-14T08:11:50.747Z,6.79
2022-11-14T08:14:39.645Z,7.15
2022-11-14T08:17:26.971Z,7.33
2022-11-14T08:20:14.155Z,7.44
2022-11-14T08:23:05.447Z,7.52
2022-11-14T08:25:52.769Z,7.40
2022-11-14T08:28:40.157Z,7.61
2022-11-14T08:31:28.998Z,7.59
2022-11-14T08:34:16.253Z,7.81
2022-11-14T08:37:03.589Z,8.06
2022-11-14T08:39:50.778Z,8.25
2022-11-14T08:42:37.985Z,8.12
2022-11-14T08:45:24.923Z,7.77
2022-11-14T08:48:13.189Z,7.78
2022-11-14T08:51:03.684Z,8.11
2022-11-14T08:53:52.315Z,7.76
2022-11-14T08:56:39.514Z,7.90
2022-11-14T08:59:26.657Z,7.90
2022-11-14T09:02:14.736Z,8.00
2022-11-14T09:05:03.190Z,7.81
2022-11-14T09:07:50.628Z,7.74
2022-11-14T09:10:38.337Z,7.86
2022-11-14T09:13:27.521Z,7.83
2022-11-14T09:16:15.263Z,7.31
2022-11-14T09:19:02.488Z,7.48
2022-11-14T09:21:51.001Z,7.57
2022-11-14T09:24:38.587Z,7.42
2022-11-14T09:27:28.276Z,7.20
2022-11-14T09:30:16.842Z,7.23
2022-11-14T09:33:11.105Z,7.27
2022-11-14T09:35:59.268Z,7.29
2022-11-14T09:38:48.100Z,7.30
2022-11-14T09:41:53.667Z,7.31
2022-11-14T09:44:56.284Z,7.33
2022-11-14T09:47:47.688Z,7.34
2022-11-14T09:50:44.731Z,7.38
2022-11-14T09:53:35.460Z,7.39
2022-11-14T09:56:26.636Z,7.45
2022-11-14T09:59:15.220Z,7.47
2022-11-14T10:02:15.255Z,7.48
2022-11-14T10:05:21.919Z,7.51
2022-11-14T10:08:27.446Z,7.58
2022-11-14T10:11:19.753Z,7.64
2022-11-14T10:14:51.387Z,7.73
2022-11-14T10:17:56.779Z,7.78
2022-11-14T10:20:49.312Z,7.82
2022-11-14T10:23:47.987Z,7.86
2022-11-14T10:26:43.784Z,7.91
2022-11-14T10:30:04.565Z,8.01
2022-11-14T10:33:06.972Z,8.14
2022-11-14T10:36:01.720Z,8.22
2022-11-14T10:38:55.360Z,8.29
2022-11-14T10:41:56.785Z,8.38
2022-11-14T10:44:53.723Z,8.47
2022-11-14T10:47:47.432Z,8.58
2022-11-14T10:50:42.025Z,8.78
2022-11-14T10:53:38.437Z,8.99
2022-11-14T10:56:25.614Z,9.02
2022-11-14T10:59:12.695Z,9.06
2022-11-14T11:02:02.980Z,9.07
2022-11-14T11:04:51.502Z,9.17
2022-11-14T11:08:28.359Z,9.21
2022-11-14T11:11:32.659Z,9.27
2022-11-14T11:14:20.882Z,9.37
2022-11-14T11:17:31.506Z,9.40
2022-11-14T11:20:33.141Z,9.42
2022-11-14T11:23:23.855Z,9.50
2022-11-14T11:26:24.142Z,9.61
2022-11-14T11:29:18.377Z,9.70
2022-11-14T11:32:06.196Z,9.76
2022-11-14T11:34:53.623Z,9.85
2022-11-14T11:37:46.822Z,9.91
2022-11-14T11:40:34.268Z,9.93
2022-11-14T11:43:40.239Z,10.04
2022-11-14T11:46:39.886Z,10.07
2022-11-14T11:49:41.556Z,10.09
2022-11-14T11:52:37.334Z,9.98
2022-11-14T11:55:29.786Z,10.17
2022-11-14T11:58:24.849Z,10.24
2022-11-14T12:01:13.597Z,10.25
2022-11-14T12:04:04.141Z,10.27
2022-11-14T12:06:58.127Z,10.29
2022-11-14T12:13:43.881Z,10.36
2022-11-14T12:16:58.904Z,10.42
2022-11-14T12:20:10.371Z,10.45
2022-11-14T12:23:21.571Z,10.46
2022-11-14T12:26:28.796Z,10.51
2022-11-14T12:29:47.263Z,10.66
2022-11-14T12:32:41.668Z,10.67
2022-11-14T12:35:33.463Z,10.64
2022-11-14T12:38:21.865Z,10.68
2022-11-14T12:41:10.114Z,10.69
2022-11-14T12:44:20.103Z,10.67
2022-11-14T12:47:20.107Z,10.74
2022-11-14T12:50:35.157Z,10.74
2022-11-14T12:53:43.028Z,10.73
2022-11-14T12:57:05.153Z,10.77
2022-11-14T13:00:03.252Z,10.82
2022-11-14T13:03:20.438Z,10.87
2022-11-14T13:06:12.756Z,10.90
2022-11-14T13:09:24.999Z,10.87
2022-11-14T13:12:51.080Z,10.86
2022-11-14T13:16:10.193Z,10.85
2022-11-14T13:19:21.305Z,10.87
2022-11-14T13:22:39.986Z,10.88
2022-11-14T13:25:28.717Z,10.93
2022-11-14T13:28:49.947Z,10.94
2022-11-14T13:31:52.137Z,10.98
2022-11-14T13:34:52.913Z,10.95
2022-11-14T13:38:03.816Z,10.91
2022-11-14T13:41:02.703Z,10.89
2022-11-14T13:44:11.943Z,9.96
2022-11-14T13:47:25.387Z,10.84
2022-11-14T13:50:15.287Z,10.85
2022-11-14T13:53:04.839Z,10.85
2022-11-14T13:56:01.245Z,10.79
2022-11-14T13:59:24.372Z,10.76
2022-11-14T14:02:36.997Z,10.79
2022-11-14T14:05:33.491Z,10.76
2022-11-14T14:08:37.251Z,10.75
2022-11-14T14:11:43.254Z,10.61
2022-11-14T14:15:03.907Z,10.68
2022-11-14T14:18:01.034Z,10.65
2022-11-14T14:20:59.182Z,10.63
2022-11-14T14:23:54.787Z,10.55
2022-11-14T14:26:57.781Z,10.48
2022-11-14T14:29:54.492Z,10.41
2022-11-14T14:32:41.808Z,10.35
2022-11-14T14:35:35.576Z,10.28
2022-11-14T14:38:29.137Z,10.24
2022-11-14T14:41:20.674Z,10.13
2022-11-14T14:44:18.594Z,10.02
2022-11-14T14:47:18.135Z,9.93
2022-11-14T14:50:14.453Z,9.80
2022-11-14T14:53:06.220Z,9.72
2022-11-14T14:55:56.942Z,9.31
2022-11-14T15:11:25.467Z,9.30
2022-11-14T15:14:18.448Z,9.19
2022-11-14T15:17:06.143Z,9.04
2022-11-14T15:19:54.894Z,8.96
2022-11-14T15:22:42.404Z,8.88
2022-11-14T15:25:29.706Z,8.78
2022-11-14T15:28:22.815Z,8.62
2022-11-14T15:31:19.375Z,8.62
2022-11-14T15:34:22.266Z,8.58
2022-11-14T15:37:22.213Z,8.52
2022-11-14T15:40:21.342Z,8.45
2022-11-14T15:43:44.979Z,8.37
2022-11-14T15:46:42.109Z,8.30
2022-11-14T15:49:29.660Z,8.20
2022-11-14T15:52:24.216Z,8.14
2022-11-14T15:55:16.369Z,8.09
2022-11-14T16:01:20.588Z,8.02
2022-11-14T16:04:12.442Z,7.99
2022-11-14T16:06:59.843Z,7.92
2022-11-14T16:09:47.277Z,7.85
2022-11-14T16:12:34.873Z,7.82
2022-11-14T16:15:23.077Z,7.76
2022-11-14T16:18:12.755Z,7.75
2022-11-14T16:21:02.269Z,7.73
2022-11-14T16:23:51.049Z,7.72
2022-11-14T16:26:39.723Z,7.65
2022-11-14T16:29:27.274Z,7.61
2022-11-14T16:32:14.538Z,7.61
2022-11-14T16:35:01.952Z,7.59
2022-11-14T16:37:50.805Z,7.57
2022-11-14T16:40:38.100Z,7.53
2022-11-14T16:43:25.116Z,7.49
2022-11-14T16:46:13.710Z,7.53
2022-11-14T16:49:01.021Z,7.48
2022-11-14T16:51:50.894Z,7.42
2022-11-14T16:54:40.825Z,7.35
2022-11-14T16:57:28.488Z,7.31
2022-11-14T17:00:16.741Z,7.28
2022-11-14T17:03:03.931Z,7.25
2022-11-14T17:05:52.662Z,7.22
2022-11-14T17:08:39.761Z,7.20
2022-11-14T17:11:28.932Z,7.22
2022-11-14T17:14:16.084Z,7.25
2022-11-14T17:17:03.097Z,7.19
2022-11-14T17:19:50.556Z,7.16
2022-11-14T17:22:38.049Z,7.10
2022-11-14T17:25:25.784Z,7.07
2022-11-14T17:28:14.747Z,7.02
2022-11-14T17:31:01.880Z,6.99
2022-11-14T17:33:53.660Z,7.02
2022-11-14T17:36:41.180Z,7.06
2022-11-14T17:39:28.360Z,7.07
2022-11-14T17:42:15.533Z,7.05
2022-11-14T17:45:04.117Z,7.02
2022-11-14T17:47:52.119Z,6.94
2022-11-14T17:50:40.900Z,6.85
2022-11-14T17:53:28.060Z,6.75
2022-11-14T17:56:17.882Z,6.69
2022-11-14T17:59:05.472Z,6.66
2022-11-14T18:01:56.010Z,6.57
2022-11-14T18:04:43.468Z,6.49
2022-11-14T18:07:33.131Z,6.42
2022-11-14T18:10:22.539Z,6.36
2022-11-14T18:13:10.856Z,6.27
2022-11-14T18:16:03.361Z,6.18
2022-11-14T18:18:52.505Z,6.11
2022-11-14T18:21:43.103Z,6.05
2022-11-14T18:24:31.023Z,6.04
2022-11-14T18:27:18.545Z,6.01
2022-11-14T18:30:20.053Z,6.01
2022-11-14T18:33:14.244Z,6.03
2022-11-14T18:36:05.218Z,6.05
2022-11-14T18:38:52.804Z,6.02
2022-11-14T18:41:40.189Z,5.96
2022-11-14T18:44:27.605Z,5.92
2022-11-14T18:47:15.241Z,5.93
2022-11-14T18:50:03.937Z,6.04
2022-11-14T18:52:52.400Z,6.07
2022-11-14T18:55:41.198Z,6.02
2022-11-14T18:58:28.577Z,5.99
2022-11-14T19:01:21.962Z,5.96
2022-11-14T19:04:11.204Z,5.88
2022-11-14T19:06:58.467Z,5.90
2022-11-14T19:09:47.222Z,5.87
2022-11-14T19:12:34.751Z,5.77
2022-11-14T19:15:29.715Z,5.82
2022-11-14T19:18:17.402Z,5.73
2022-11-14T19:21:06.305Z,5.63
2022-11-14T19:23:53.876Z,5.54
2022-11-14T19:26:42.826Z,5.49
2022-11-14T19:29:30.095Z,5.47
2022-11-14T19:32:17.482Z,5.41
2022-11-14T19:35:06.428Z,5.40
2022-11-14T19:37:54.020Z,5.39
2022-11-14T19:40:42.914Z,5.37
2022-11-14T19:43:31.994Z,5.35
2022-11-14T19:46:21.555Z,5.32
2022-11-14T19:49:08.969Z,5.34
2022-11-14T19:51:56.365Z,5.34
2022-11-14T19:54:43.986Z,5.30
2022-11-14T19:57:32.331Z,5.26
2022-11-14T20:00:25.044Z,5.25
2022-11-14T20:03:13.168Z,5.22
2022-11-14T20:06:00.811Z,5.23
2022-11-14T20:08:48.472Z,5.27
2022-11-14T20:11:36.028Z,5.30
2022-11-14T20:14:23.412Z,5.31
2022-11-14T20:17:14.481Z,5.33
2022-11-14T20:20:05.671Z,5.37
2022-11-14T20:22:53.067Z,5.40
2022-11-14T20:25:51.452Z,5.41
2022-11-14T20:28:41.483Z,5.40
2022-11-14T20:31:31.220Z,5.37
2022-11-14T20:34:20.082Z,5.35
2022-11-14T20:37:11.733Z,5.32
2022-11-14T20:39:59.543Z,5.30
2022-11-14T20:42:50.422Z,5.27
2022-11-14T20:45:41.508Z,5.22
2022-11-14T20:48:31.259Z,5.20
2022-11-14T20:51:22.958Z,5.14
2022-11-14T20:54:10.741Z,5.14
2022-11-14T20:56:58.133Z,5.14
2022-11-14T20:59:45.697Z,5.11
2022-11-14T21:02:33.813Z,5.12
2022-11-14T21:05:20.922Z,5.08
2022-11-14T21:08:09.800Z,5.06
2022-11-14T21:11:01.431Z,5.04
2022-11-14T21:13:57.245Z,5.09
2022-11-14T21:16:44.423Z,5.04
2022-11-14T21:19:31.492Z,5.03
2022-11-14T21:22:18.432Z,5.02
2022-11-14T21:25:08.605Z,5.03
2022-11-14T21:27:55.999Z,5.06
2022-11-14T21:30:43.256Z,5.08
2022-11-14T21:33:32.082Z,5.14
2022-11-14T21:36:43.823Z,5.17
2022-11-14T21:39:29.495Z,5.24
2022-11-14T21:42:18.934Z,5.27
2022-11-14T21:45:07.294Z,5.27
2022-11-14T21:47:54.371Z,5.27
2022-11-14T21:50:41.306Z,5.29
2022-11-14T21:53:29.932Z,5.28
2022-11-14T21:56:34.866Z,5.27
2022-11-14T21:59:28.979Z,5.26
2022-11-14T22:02:33.522Z,5.25
2022-11-14T22:05:20.823Z,5.31
2022-11-14T22:08:07.771Z,5.28
2022-11-14T22:10:55.286Z,5.30
2022-11-14T22:13:42.182Z,5.31
2022-11-14T22:16:30.640Z,5.34
2022-11-14T22:19:18.835Z,5.28
2022-11-14T22:22:05.979Z,5.20
2022-11-14T22:24:53.013Z,5.16
2022-11-14T22:27:40.139Z,5.15
2022-11-14T22:30:27.416Z,5.14
2022-11-14T22:33:15.743Z,5.18
2022-11-14T22:36:04.505Z,5.14
2022-11-14T22:38:53.213Z,5.15
2022-11-14T22:41:40.686Z,5.15
2022-11-14T22:44:28.228Z,5.09
2022-11-14T22:47:15.258Z,4.99
2022-11-14T22:50:03.810Z,4.97
2022-11-14T22:52:50.746Z,5.01
2022-11-14T22:55:38.147Z,4.98
2022-11-14T22:58:25.660Z,4.92
2022-11-14T23:01:14.040Z,4.98
2022-11-14T23:04:03.171Z,5.03
2022-11-14T23:06:51.581Z,5.05
2022-11-14T23:09:38.955Z,5.04
2022-11-14T23:12:26.159Z,5.04
2022-11-14T23:15:13.676Z,5.02
2022-11-14T23:18:01.419Z,4.99
2022-11-14T23:20:48.772Z,4.98
2022-11-14T23:23:38.063Z,4.97
2022-11-14T23:26:26.385Z,4.98
2022-11-14T23:29:15.087Z,5.00
2022-11-14T23:32:02.368Z,4.99
2022-11-14T23:34:49.489Z,4.97
2022-11-14T23:37:36.572Z,4.93
2022-11-14T23:40:25.128Z,4.91
2022-11-14T23:43:12.133Z,4.92
2022-11-14T23:45:59.631Z,4.92
2022-11-14T23:48:46.902Z,4.94
2022-11-14T23:51:34.120Z,5.03
2022-11-14T23:54:21.265Z,5.03
2022-11-14T23:57:09.738Z,4.98
2022-11-14T23:59:57.159Z,4.93
